Heathrow, Florida
Current Conditions -  °F | °C
As of 12:53 PM on Thursday 23 Oct 2014 (Local Time) from KSFB Reporting Station
Clear Clear  
Wind Chill: 79°   Ceiling: Unl
Heat Index: 79°   Visibility: 10mi
Dew Point: 54°   Wind: 7mph
Humidity: 42%   Direction: NA
Pressure: 30.01"   Gusts: NA
Location:  28.7595°N, 81.3431°W
Report Text: KSFB 231653Z VRB06KT 10SM CLR 26/12 A3001 RMK AO2 SLP161 T02610122
Loading
Personal Weather Stations






























Interactive Weather Map New forecast layout! Learn more

10-Day Weather Forecast

Advertisements
Track Severe Weather on mobile